MDT,Max TemperatureF,Mean TemperatureF,Min TemperatureF,Max Dew PointF,MeanDew PointF,Min DewpointF,Max Humidity, Mean Humidity, Min Humidity, Max Sea Level PressureIn, Mean Sea Level PressureIn, Min Sea Level PressureIn, Max VisibilityMiles, Mean VisibilityMiles, Min VisibilityMiles, Max Wind SpeedMPH, Mean Wind SpeedMPH, Max Gust SpeedMPH,PrecipitationIn, CloudCover, Events, WindDirDegrees
2012-10-1,76,57,37,37,33,29,85,52,18,30.30,30.15,29.91,10,10,10,20,8,22,0.00,0,,193
2012-10-2,70,57,43,37,34,32,76,51,25,29.89,29.77,29.67,10,10,10,18,12,24,0.00,1,,84
2012-10-3,45,39,32,39,33,30,100,85,70,30.55,30.28,29.93,10,6,0,18,9,23,0.34,8,Fog-Rain-Snow,333
2012-10-4,40,36,32,34,31,28,96,83,70,30.51,30.42,30.33,10,9,1,13,5,15,0.01,8,Snow,320
2012-10-5,38,29,20,30,27,20,96,83,70,30.53,30.44,30.38,10,8,0,18,4,22,0.03,6,Fog-Snow,248
2012-10-6,49,33,17,36,24,10,92,60,27,30.50,30.32,30.16,10,10,10,23,10,29,0.03,4,Rain,257
2012-10-7,62,47,31,35,30,23,92,58,23,30.19,30.02,29.91,10,10,10,22,8,30,0.00,1,,271
2012-10-8,47,40,33,41,36,29,100,75,49,30.13,29.99,29.88,10,8,3,16,9,35,0.35,8,Rain-Snow,306
2012-10-9,53,42,30,34,30,27,100,71,41,30.19,30.12,30.07,10,10,10,17,6,43,0.00,4,,235
2012-10-10,61,46,30,38,33,27,82,57,32,30.13,30.00,29.91,10,9,3,18,8,30,0.03,3,Rain,8
2012-10-11,40,34,28,37,30,27,100,88,76,30.31,30.18,30.02,10,9,3,20,11,63,0.01,6,Rain,98
2012-10-12,74,52,29,33,26,17,100,55,10,29.99,29.79,29.67,10,10,10,24,10,30,0.00,0,,205
2012-10-13,63,51,39,44,34,26,77,56,34,30.09,29.90,29.73,10,10,10,24,10,35,0.01,3,Rain,265
2012-10-14,66,53,39,37,34,30,79,55,30,30.13,30.00,29.78,10,10,10,25,16,32,0.00,3,,243
2012-10-15,61,53,44,47,39,31,83,58,32,29.80,29.76,29.73,10,10,10,32,13,40,0.04,4,Rain,239
2012-10-16,59,50,40,48,35,21,93,62,30,29.74,29.50,29.34,10,9,2,44,20,54,0.26,5,Rain,266
2012-10-17,45,37,29,25,21,18,75,56,36,30.20,29.95,29.74,10,10,10,40,16,49,T,5,,295
2012-10-18,56,40,24,25,20,15,75,49,22,30.27,30.18,30.01,10,10,10,15,6,17,0.00,0,,238
2012-10-19,65,50,34,35,30,25,76,51,25,29.97,29.72,29.55,10,10,10,35,17,41,0.00,0,,234
2012-10-20,58,45,32,36,29,17,61,46,30,29.79,29.58,29.48,10,10,10,25,14,35,0.00,5,,277
2012-10-21,48,41,33,26,20,14,64,48,32,29.94,29.89,29.82,10,10,10,16,5,20,0.00,6,,112
2012-10-22,42,35,28,34,30,24,100,81,62,29.92,29.77,29.61,10,9,2,21,8,24,0.10,5,Snow,109
2012-10-23,31,23,15,28,21,18,100,85,69,30.09,29.87,29.63,10,7,0,20,9,28,0.17,7,Fog-Snow,289
2012-10-24,27,21,14,21,18,14,100,88,75,30.32,30.16,29.97,10,10,4,12,4,14,T,7,Snow,292
2012-10-25,21,20,19,18,16,15,84,81,77,30.54,30.44,30.29,10,10,4,13,8,17,T,8,Snow,305
2012-10-26,37,26,15,23,19,13,92,72,52,30.54,30.35,30.16,10,10,10,15,6,17,0.00,5,,221
2012-10-27,34,28,22,30,27,20,100,89,78,30.15,30.07,29.99,10,6,1,10,5,12,0.04,7,Snow,111
2012-10-28,55,42,28,39,34,26,92,73,54,30.02,29.88,29.81,10,10,10,29,12,36,0.03,4,Rain,228
2012-10-29,62,51,39,45,39,34,86,69,51,29.99,29.91,29.82,10,10,10,29,13,36,0.09,5,Rain,210
2012-10-30,64,53,42,35,32,29,62,45,27,30.02,29.96,29.90,10,10,10,25,14,31,0.00,1,,237
2012-10-31,55,44,33,40,35,32,100,72,43,30.09,29.99,29.89,10,9,5,16,9,28,0.00,3,,129